Terminal Aerodrome Forecast
Issued by NWS

Home | Current Version | Previous Version | Graphics & Text | Print | Product List | Glossary On
Versions: 1 2 3 4 5 6 7 8 9 10 11 12 13
286
FTUS43 KMPX 010520
TAFRNH
TAF
KRNH 010520Z 0106/0206 32007KT 6SM -RASN BR OVC007
     FM011000 31007KT 6SM BR VCSH OVC008
     FM011700 31009KT P6SM OVC012
     FM012100 31008KT P6SM BKN022 OVC035=

USA.gov is the U.S. government's official web portal to all federal, state and local government web resources and services.